sensor_id;sensor_type;location;lat;lon;timestamp;temperature;humidity
8965;DHT22;4517;49.020;12.066;2022-07-22T00:00:13;18.40;99.90
8965;DHT22;4517;49.020;12.066;2022-07-22T00:02:39;18.50;99.90
8965;DHT22;4517;49.020;12.066;2022-07-22T00:05:05;18.60;99.90
8965;DHT22;4517;49.020;12.066;2022-07-22T00:07:31;18.40;99.90
8965;DHT22;4517;49.020;12.066;2022-07-22T00:09:58;18.30;99.90
8965;DHT22;4517;49.020;12.066;2022-07-22T00:12:24;18.20;99.90
8965;DHT22;4517;49.020;12.066;2022-07-22T00:14:49;18.10;99.90
8965;DHT22;4517;49.020;12.066;2022-07-22T00:17:15;18.00;99.90
8965;DHT22;4517;49.020;12.066;2022-07-22T00:19:40;17.90;99.90
8965;DHT22;4517;49.020;12.066;2022-07-22T00:22:06;17.90;99.90
8965;DHT22;4517;49.020;12.066;2022-07-22T00:24:31;17.80;99.90
8965;DHT22;4517;49.020;12.066;2022-07-22T00:26:57;17.80;99.90
8965;DHT22;4517;49.020;12.066;2022-07-22T00:29:23;17.70;99.90
8965;DHT22;4517;49.020;12.066;2022-07-22T00:31:48;17.80;99.90
8965;DHT22;4517;49.020;12.066;2022-07-22T00:34:14;17.80;99.90
8965;DHT22;4517;49.020;12.066;2022-07-22T00:36:39;17.80;99.90
8965;DHT22;4517;49.020;12.066;2022-07-22T00:39:05;17.80;99.90
8965;DHT22;4517;49.020;12.066;2022-07-22T00:41:30;17.90;99.90
8965;DHT22;4517;49.020;12.066;2022-07-22T00:44:05;18.10;99.90
8965;DHT22;4517;49.020;12.066;2022-07-22T00:46:32;18.10;99.90
8965;DHT22;4517;49.020;12.066;2022-07-22T00:48:58;18.20;99.90
8965;DHT22;4517;49.020;12.066;2022-07-22T00:51:26;18.30;99.90
8965;DHT22;4517;49.020;12.066;2022-07-22T00:53:53;18.30;99.90
8965;DHT22;4517;49.020;12.066;2022-07-22T00:56:20;18.30;99.90
8965;DHT22;4517;49.020;12.066;2022-07-22T00:58:48;18.20;99.90
8965;DHT22;4517;49.020;12.066;2022-07-22T01:01:14;18.10;99.90
8965;DHT22;4517;49.020;12.066;2022-07-22T01:03:40;18.00;99.90
8965;DHT22;4517;49.020;12.066;2022-07-22T01:06:06;18.00;99.90
8965;DHT22;4517;49.020;12.066;2022-07-22T01:08:32;18.20;99.90
8965;DHT22;4517;49.020;12.066;2022-07-22T01:11:09;18.30;99.90
8965;DHT22;4517;49.020;12.066;2022-07-22T01:13:35;18.30;99.90
8965;DHT22;4517;49.020;12.066;2022-07-22T01:16:02;18.30;99.90
8965;DHT22;4517;49.020;12.066;2022-07-22T01:18:28;18.20;99.90
8965;DHT22;4517;49.020;12.066;2022-07-22T01:20:54;18.20;99.90
8965;DHT22;4517;49.020;12.066;2022-07-22T01:23:19;18.10;99.90
8965;DHT22;4517;49.020;12.066;2022-07-22T01:25:45;18.10;99.90
8965;DHT22;4517;49.020;12.066;2022-07-22T01:28:10;18.00;99.90
8965;DHT22;4517;49.020;12.066;2022-07-22T01:30:36;17.90;99.90
8965;DHT22;4517;49.020;12.066;2022-07-22T01:33:02;17.90;99.90
8965;DHT22;4517;49.020;12.066;2022-07-22T01:35:27;17.90;99.90
8965;DHT22;4517;49.020;12.066;2022-07-22T01:37:53;17.90;99.90
8965;DHT22;4517;49.020;12.066;2022-07-22T01:40:18;17.80;99.90
8965;DHT22;4517;49.020;12.066;2022-07-22T01:42:44;17.60;99.90
8965;DHT22;4517;49.020;12.066;2022-07-22T01:45:09;17.50;99.90
8965;DHT22;4517;49.020;12.066;2022-07-22T01:47:35;17.40;99.90
8965;DHT22;4517;49.020;12.066;2022-07-22T01:50:02;17.40;99.90
8965;DHT22;4517;49.020;12.066;2022-07-22T01:52:28;17.30;99.90
8965;DHT22;4517;49.020;12.066;2022-07-22T01:54:53;17.40;99.90
8965;DHT22;4517;49.020;12.066;2022-07-22T01:57:19;17.40;99.90
8965;DHT22;4517;49.020;12.066;2022-07-22T01:59:44;17.30;99.90
8965;DHT22;4517;49.020;12.066;2022-07-22T02:02:10;17.30;99.90
8965;DHT22;4517;49.020;12.066;2022-07-22T02:04:35;17.10;99.90
8965;DHT22;4517;49.020;12.066;2022-07-22T02:07:01;17.10;99.90
8965;DHT22;4517;49.020;12.066;2022-07-22T02:09:26;17.00;99.90
8965;DHT22;4517;49.020;12.066;2022-07-22T02:11:52;17.00;99.90
8965;DHT22;4517;49.020;12.066;2022-07-22T02:14:17;17.00;99.90
8965;DHT22;4517;49.020;12.066;2022-07-22T02:16:43;17.10;99.90
8965;DHT22;4517;49.020;12.066;2022-07-22T02:19:08;17.20;99.90
8965;DHT22;4517;49.020;12.066;2022-07-22T02:21:34;17.20;99.90
8965;DHT22;4517;49.020;12.066;2022-07-22T02:24:00;17.30;99.90
8965;DHT22;4517;49.020;12.066;2022-07-22T02:26:25;17.20;99.90
8965;DHT22;4517;49.020;12.066;2022-07-22T02:28:51;17.10;99.90
8965;DHT22;4517;49.020;12.066;2022-07-22T02:31:16;17.20;99.90
8965;DHT22;4517;49.020;12.066;2022-07-22T02:33:42;17.40;99.90
8965;DHT22;4517;49.020;12.066;2022-07-22T02:36:08;17.30;99.90
8965;DHT22;4517;49.020;12.066;2022-07-22T02:38:33;17.30;99.90
8965;DHT22;4517;49.020;12.066;2022-07-22T02:40:59;17.30;99.90
8965;DHT22;4517;49.020;12.066;2022-07-22T02:43:24;17.20;99.90
8965;DHT22;4517;49.020;12.066;2022-07-22T02:45:50;17.10;99.90
8965;DHT22;4517;49.020;12.066;2022-07-22T02:48:16;17.00;99.90
8965;DHT22;4517;49.020;12.066;2022-07-22T02:50:46;16.90;99.90
8965;DHT22;4517;49.020;12.066;2022-07-22T02:53:12;16.90;99.90
8965;DHT22;4517;49.020;12.066;2022-07-22T02:55:37;16.80;99.90
8965;DHT22;4517;49.020;12.066;2022-07-22T02:58:08;17.10;99.90
8965;DHT22;4517;49.020;12.066;2022-07-22T03:00:35;17.10;99.90
8965;DHT22;4517;49.020;12.066;2022-07-22T03:03:01;17.20;99.90
8965;DHT22;4517;49.020;12.066;2022-07-22T03:05:26;17.10;99.90
8965;DHT22;4517;49.020;12.066;2022-07-22T03:07:52;17.10;99.90
8965;DHT22;4517;49.020;12.066;2022-07-22T03:10:17;17.10;99.90
8965;DHT22;4517;49.020;12.066;2022-07-22T03:12:43;17.00;99.90
8965;DHT22;4517;49.020;12.066;2022-07-22T03:15:09;16.90;99.90
8965;DHT22;4517;49.020;12.066;2022-07-22T03:17:35;16.80;99.90
8965;DHT22;4517;49.020;12.066;2022-07-22T03:20:06;16.90;99.90
8965;DHT22;4517;49.020;12.066;2022-07-22T03:22:32;16.90;99.90
8965;DHT22;4517;49.020;12.066;2022-07-22T03:24:58;16.90;99.90
8965;DHT22;4517;49.020;12.066;2022-07-22T03:27:23;16.80;99.90
8965;DHT22;4517;49.020;12.066;2022-07-22T03:29:49;16.80;99.90
8965;DHT22;4517;49.020;12.066;2022-07-22T03:32:14;16.80;99.90
8965;DHT22;4517;49.020;12.066;2022-07-22T03:34:40;16.90;99.90
8965;DHT22;4517;49.020;12.066;2022-07-22T03:37:05;16.90;99.90
8965;DHT22;4517;49.020;12.066;2022-07-22T03:39:31;16.90;99.90
8965;DHT22;4517;49.020;12.066;2022-07-22T03:41:56;16.80;99.90
8965;DHT22;4517;49.020;12.066;2022-07-22T03:44:22;16.70;99.90
8965;DHT22;4517;49.020;12.066;2022-07-22T03:46:47;16.60;99.90
8965;DHT22;4517;49.020;12.066;2022-07-22T03:49:13;16.70;99.90
8965;DHT22;4517;49.020;12.066;2022-07-22T03:51:39;16.80;99.90
8965;DHT22;4517;49.020;12.066;2022-07-22T03:54:04;17.10;99.90
8965;DHT22;4517;49.020;12.066;2022-07-22T03:56:30;17.40;99.90
8965;DHT22;4517;49.020;12.066;2022-07-22T03:58:55;17.70;99.90
8965;DHT22;4517;49.020;12.066;2022-07-22T04:01:21;17.90;99.90
8965;DHT22;4517;49.020;12.066;2022-07-22T04:03:46;18.20;99.90
8965;DHT22;4517;49.020;12.066;2022-07-22T04:06:14;18.50;99.90
8965;DHT22;4517;49.020;12.066;2022-07-22T04:08:39;18.80;99.90
8965;DHT22;4517;49.020;12.066;2022-07-22T04:11:05;19.20;99.90
8965;DHT22;4517;49.020;12.066;2022-07-22T04:13:31;19.60;99.90
8965;DHT22;4517;49.020;12.066;2022-07-22T04:15:56;20.00;99.90
8965;DHT22;4517;49.020;12.066;2022-07-22T04:18:22;20.30;99.90
8965;DHT22;4517;49.020;12.066;2022-07-22T04:20:48;20.60;99.90
8965;DHT22;4517;49.020;12.066;2022-07-22T04:23:13;20.70;99.90
8965;DHT22;4517;49.020;12.066;2022-07-22T04:25:39;21.10;99.90
8965;DHT22;4517;49.020;12.066;2022-07-22T04:28:04;21.30;99.90
8965;DHT22;4517;49.020;12.066;2022-07-22T04:30:30;21.70;99.90
8965;DHT22;4517;49.020;12.066;2022-07-22T04:32:55;22.10;99.90
8965;DHT22;4517;49.020;12.066;2022-07-22T04:35:21;22.20;99.90
8965;DHT22;4517;49.020;12.066;2022-07-22T04:37:47;22.70;99.90
8965;DHT22;4517;49.020;12.066;2022-07-22T04:40:12;22.90;99.90
8965;DHT22;4517;49.020;12.066;2022-07-22T04:42:38;23.10;99.90
8965;DHT22;4517;49.020;12.066;2022-07-22T04:45:04;23.40;99.90
8965;DHT22;4517;49.020;12.066;2022-07-22T04:47:29;23.70;99.90
8965;DHT22;4517;49.020;12.066;2022-07-22T04:49:55;24.10;99.90
8965;DHT22;4517;49.020;12.066;2022-07-22T04:52:20;23.90;99.90
8965;DHT22;4517;49.020;12.066;2022-07-22T04:54:46;24.40;99.90
8965;DHT22;4517;49.020;12.066;2022-07-22T04:57:11;24.60;99.90
8965;DHT22;4517;49.020;12.066;2022-07-22T04:59:37;24.70;99.90
8965;DHT22;4517;49.020;12.066;2022-07-22T05:02:03;25.10;99.90
8965;DHT22;4517;49.020;12.066;2022-07-22T05:04:29;25.50;99.90
8965;DHT22;4517;49.020;12.066;2022-07-22T05:06:54;25.50;99.90
8965;DHT22;4517;49.020;12.066;2022-07-22T05:09:20;25.80;99.90
8965;DHT22;4517;49.020;12.066;2022-07-22T05:11:45;26.60;99.90
8965;DHT22;4517;49.020;12.066;2022-07-22T05:14:11;26.70;99.90
8965;DHT22;4517;49.020;12.066;2022-07-22T05:16:37;27.20;99.90
8965;DHT22;4517;49.020;12.066;2022-07-22T05:19:03;27.50;99.90
8965;DHT22;4517;49.020;12.066;2022-07-22T05:21:30;27.60;99.50
8965;DHT22;4517;49.020;12.066;2022-07-22T05:23:55;28.00;98.50
8965;DHT22;4517;49.020;12.066;2022-07-22T05:26:21;28.10;97.80
8965;DHT22;4517;49.020;12.066;2022-07-22T05:28:46;27.80;97.50
8965;DHT22;4517;49.020;12.066;2022-07-22T05:31:12;27.70;97.40
8965;DHT22;4517;49.020;12.066;2022-07-22T05:33:37;28.10;97.00
8965;DHT22;4517;49.020;12.066;2022-07-22T05:36:03;28.10;96.30
8965;DHT22;4517;49.020;12.066;2022-07-22T05:38:32;28.50;96.00
8965;DHT22;4517;49.020;12.066;2022-07-22T05:40:58;28.60;95.40
8965;DHT22;4517;49.020;12.066;2022-07-22T05:43:24;28.70;94.90
8965;DHT22;4517;49.020;12.066;2022-07-22T05:45:50;29.00;94.30
8965;DHT22;4517;49.020;12.066;2022-07-22T05:48:16;28.90;94.10
8965;DHT22;4517;49.020;12.066;2022-07-22T05:50:41;28.90;93.70
8965;DHT22;4517;49.020;12.066;2022-07-22T05:53:07;28.70;93.70
8965;DHT22;4517;49.020;12.066;2022-07-22T05:55:32;28.90;93.70
8965;DHT22;4517;49.020;12.066;2022-07-22T05:57:58;29.00;93.20
8965;DHT22;4517;49.020;12.066;2022-07-22T06:00:23;29.20;92.80
8965;DHT22;4517;49.020;12.066;2022-07-22T06:02:49;29.30;92.30
8965;DHT22;4517;49.020;12.066;2022-07-22T06:05:15;29.30;92.10
8965;DHT22;4517;49.020;12.066;2022-07-22T06:07:40;29.80;91.50
8965;DHT22;4517;49.020;12.066;2022-07-22T06:10:06;29.80;91.40
8965;DHT22;4517;49.020;12.066;2022-07-22T06:12:31;29.90;91.10
8965;DHT22;4517;49.020;12.066;2022-07-22T06:14:57;30.20;90.50
8965;DHT22;4517;49.020;12.066;2022-07-22T06:17:22;30.20;90.20
8965;DHT22;4517;49.020;12.066;2022-07-22T06:19:48;29.60;90.30
8965;DHT22;4517;49.020;12.066;2022-07-22T06:22:13;29.00;90.90
8965;DHT22;4517;49.020;12.066;2022-07-22T06:24:39;28.80;91.40
8965;DHT22;4517;49.020;12.066;2022-07-22T06:27:04;28.70;91.40
8965;DHT22;4517;49.020;12.066;2022-07-22T06:29:30;29.10;90.90
8965;DHT22;4517;49.020;12.066;2022-07-22T06:31:55;29.10;91.10
8965;DHT22;4517;49.020;12.066;2022-07-22T06:34:21;29.20;90.80
8965;DHT22;4517;49.020;12.066;2022-07-22T06:36:47;28.80;90.90
8965;DHT22;4517;49.020;12.066;2022-07-22T06:39:12;29.00;90.50
8965;DHT22;4517;49.020;12.066;2022-07-22T06:41:38;28.60;90.90
8965;DHT22;4517;49.020;12.066;2022-07-22T06:44:03;28.70;90.90
8965;DHT22;4517;49.020;12.066;2022-07-22T06:46:29;28.90;90.80
8965;DHT22;4517;49.020;12.066;2022-07-22T06:48:55;29.10;90.60
8965;DHT22;4517;49.020;12.066;2022-07-22T06:51:20;29.30;90.40
8965;DHT22;4517;49.020;12.066;2022-07-22T06:53:46;29.60;89.80
8965;DHT22;4517;49.020;12.066;2022-07-22T06:56:12;29.60;89.80
8965;DHT22;4517;49.020;12.066;2022-07-22T06:58:37;29.70;89.00
8965;DHT22;4517;49.020;12.066;2022-07-22T07:01:03;29.50;88.40
8965;DHT22;4517;49.020;12.066;2022-07-22T07:03:29;28.70;90.00
8965;DHT22;4517;49.020;12.066;2022-07-22T07:05:54;28.20;90.40
8965;DHT22;4517;49.020;12.066;2022-07-22T07:08:20;27.90;90.80
8965;DHT22;4517;49.020;12.066;2022-07-22T07:10:45;27.60;91.20
8965;DHT22;4517;49.020;12.066;2022-07-22T07:13:11;27.00;92.20
8965;DHT22;4517;49.020;12.066;2022-07-22T07:15:37;26.70;92.70
8965;DHT22;4517;49.020;12.066;2022-07-22T07:18:02;26.20;93.30
8965;DHT22;4517;49.020;12.066;2022-07-22T07:20:28;25.80;94.30
8965;DHT22;4517;49.020;12.066;2022-07-22T07:22:54;25.90;94.30
8965;DHT22;4517;49.020;12.066;2022-07-22T07:25:19;26.00;94.60
8965;DHT22;4517;49.020;12.066;2022-07-22T07:27:46;26.00;94.70
8965;DHT22;4517;49.020;12.066;2022-07-22T07:30:12;25.70;95.10
8965;DHT22;4517;49.020;12.066;2022-07-22T07:32:38;25.60;95.40
8965;DHT22;4517;49.020;12.066;2022-07-22T07:35:05;25.60;95.50
8965;DHT22;4517;49.020;12.066;2022-07-22T07:37:31;25.60;95.50
8965;DHT22;4517;49.020;12.066;2022-07-22T07:39:58;25.70;95.70
8965;DHT22;4517;49.020;12.066;2022-07-22T07:42:24;25.70;95.70
8965;DHT22;4517;49.020;12.066;2022-07-22T07:44:50;25.70;95.60
8965;DHT22;4517;49.020;12.066;2022-07-22T07:47:16;25.60;96.00
8965;DHT22;4517;49.020;12.066;2022-07-22T07:49:48;25.70;95.60
8965;DHT22;4517;49.020;12.066;2022-07-22T07:52:15;25.70;95.70
8965;DHT22;4517;49.020;12.066;2022-07-22T07:54:41;25.70;96.10
8965;DHT22;4517;49.020;12.066;2022-07-22T07:57:08;25.40;95.60
8965;DHT22;4517;49.020;12.066;2022-07-22T07:59:36;25.00;96.00
8965;DHT22;4517;49.020;12.066;2022-07-22T08:02:03;24.90;95.70
8965;DHT22;4517;49.020;12.066;2022-07-22T08:04:29;24.80;95.80
8965;DHT22;4517;49.020;12.066;2022-07-22T08:06:55;25.00;96.00
8965;DHT22;4517;49.020;12.066;2022-07-22T08:09:20;25.20;96.00
8965;DHT22;4517;49.020;12.066;2022-07-22T08:11:46;25.30;94.90
8965;DHT22;4517;49.020;12.066;2022-07-22T08:14:11;25.50;95.30
8965;DHT22;4517;49.020;12.066;2022-07-22T08:16:37;25.50;95.00
8965;DHT22;4517;49.020;12.066;2022-07-22T08:19:03;25.70;94.70
8965;DHT22;4517;49.020;12.066;2022-07-22T08:21:29;25.80;94.30
8965;DHT22;4517;49.020;12.066;2022-07-22T08:23:55;26.00;94.90
8965;DHT22;4517;49.020;12.066;2022-07-22T08:26:20;25.90;94.50
8965;DHT22;4517;49.020;12.066;2022-07-22T08:28:46;26.00;93.70
8965;DHT22;4517;49.020;12.066;2022-07-22T08:31:12;26.10;93.30
8965;DHT22;4517;49.020;12.066;2022-07-22T08:33:37;26.00;92.50
8965;DHT22;4517;49.020;12.066;2022-07-22T08:36:03;25.90;93.00
8965;DHT22;4517;49.020;12.066;2022-07-22T08:38:29;26.10;92.40
8965;DHT22;4517;49.020;12.066;2022-07-22T08:40:55;26.20;91.00
8965;DHT22;4517;49.020;12.066;2022-07-22T08:43:22;26.30;90.90
8965;DHT22;4517;49.020;12.066;2022-07-22T08:45:48;26.10;90.50
8965;DHT22;4517;49.020;12.066;2022-07-22T08:48:13;26.00;90.90
8965;DHT22;4517;49.020;12.066;2022-07-22T08:50:39;26.20;90.10
8965;DHT22;4517;49.020;12.066;2022-07-22T08:53:09;26.10;90.00
8965;DHT22;4517;49.020;12.066;2022-07-22T08:55:43;26.10;88.10
8965;DHT22;4517;49.020;12.066;2022-07-22T08:58:09;26.00;87.20
8965;DHT22;4517;49.020;12.066;2022-07-22T09:00:35;25.80;83.80
8965;DHT22;4517;49.020;12.066;2022-07-22T09:03:24;25.90;83.50
8965;DHT22;4517;49.020;12.066;2022-07-22T09:05:53;26.20;83.50
8965;DHT22;4517;49.020;12.066;2022-07-22T09:08:20;26.40;83.60
8965;DHT22;4517;49.020;12.066;2022-07-22T09:10:46;26.40;81.80
8965;DHT22;4517;49.020;12.066;2022-07-22T09:13:12;26.50;82.90
8965;DHT22;4517;49.020;12.066;2022-07-22T09:15:47;26.60;84.70
8965;DHT22;4517;49.020;12.066;2022-07-22T09:18:13;26.80;85.70
8965;DHT22;4517;49.020;12.066;2022-07-22T09:20:39;26.90;84.80
8965;DHT22;4517;49.020;12.066;2022-07-22T09:23:11;26.90;84.10
8965;DHT22;4517;49.020;12.066;2022-07-22T09:25:38;27.10;84.70
8965;DHT22;4517;49.020;12.066;2022-07-22T09:30:40;27.30;84.90
8965;DHT22;4517;49.020;12.066;2022-07-22T09:33:07;27.40;83.40
8965;DHT22;4517;49.020;12.066;2022-07-22T09:35:33;27.40;82.30
8965;DHT22;4517;49.020;12.066;2022-07-22T09:38:04;27.40;82.70
8965;DHT22;4517;49.020;12.066;2022-07-22T09:40:35;27.50;82.40
8965;DHT22;4517;49.020;12.066;2022-07-22T09:43:05;27.50;81.60
8965;DHT22;4517;49.020;12.066;2022-07-22T09:45:33;27.60;81.20
8965;DHT22;4517;49.020;12.066;2022-07-22T09:47:59;27.50;81.50
8965;DHT22;4517;49.020;12.066;2022-07-22T09:50:31;27.40;81.50
8965;DHT22;4517;49.020;12.066;2022-07-22T09:52:58;27.40;81.40
8965;DHT22;4517;49.020;12.066;2022-07-22T09:55:26;27.30;81.40
8965;DHT22;4517;49.020;12.066;2022-07-22T09:57:53;27.20;81.30
8965;DHT22;4517;49.020;12.066;2022-07-22T10:00:21;27.20;81.10
8965;DHT22;4517;49.020;12.066;2022-07-22T10:02:59;27.50;82.10
8965;DHT22;4517;49.020;12.066;2022-07-22T10:05:27;27.70;81.00
8965;DHT22;4517;49.020;12.066;2022-07-22T10:07:54;27.50;80.40
8965;DHT22;4517;49.020;12.066;2022-07-22T10:10:22;27.20;80.70
8965;DHT22;4517;49.020;12.066;2022-07-22T10:12:49;27.30;79.80
8965;DHT22;4517;49.020;12.066;2022-07-22T10:15:16;27.50;80.70
8965;DHT22;4517;49.020;12.066;2022-07-22T10:17:45;27.80;80.40
8965;DHT22;4517;49.020;12.066;2022-07-22T10:20:11;27.90;78.60
8965;DHT22;4517;49.020;12.066;2022-07-22T10:25:12;27.90;79.90
8965;DHT22;4517;49.020;12.066;2022-07-22T10:27:59;28.00;78.80
8965;DHT22;4517;49.020;12.066;2022-07-22T10:30:31;28.00;78.80
8965;DHT22;4517;49.020;12.066;2022-07-22T10:33:12;28.10;78.80
8965;DHT22;4517;49.020;12.066;2022-07-22T10:36:01;28.20;79.10
8965;DHT22;4517;49.020;12.066;2022-07-22T10:38:29;28.10;78.40
8965;DHT22;4517;49.020;12.066;2022-07-22T10:40:57;28.20;77.90
8965;DHT22;4517;49.020;12.066;2022-07-22T10:46:10;27.60;77.60
8965;DHT22;4517;49.020;12.066;2022-07-22T10:51:05;27.50;78.00
8965;DHT22;4517;49.020;12.066;2022-07-22T10:56:26;28.20;78.90
8965;DHT22;4517;49.020;12.066;2022-07-22T10:58:57;28.70;77.10
8965;DHT22;4517;49.020;12.066;2022-07-22T11:01:29;29.10;76.40
8965;DHT22;4517;49.020;12.066;2022-07-22T11:03:55;29.30;74.90
8965;DHT22;4517;49.020;12.066;2022-07-22T11:06:30;29.40;74.80
8965;DHT22;4517;49.020;12.066;2022-07-22T11:08:57;29.40;74.10
8965;DHT22;4517;49.020;12.066;2022-07-22T11:11:46;29.60;73.30
8965;DHT22;4517;49.020;12.066;2022-07-22T11:16:56;29.70;72.10
8965;DHT22;4517;49.020;12.066;2022-07-22T11:19:27;29.90;69.10
8965;DHT22;4517;49.020;12.066;2022-07-22T11:21:55;29.90;69.70
8965;DHT22;4517;49.020;12.066;2022-07-22T11:24:22;30.10;68.80
8965;DHT22;4517;49.020;12.066;2022-07-22T11:26:50;30.10;68.10
8965;DHT22;4517;49.020;12.066;2022-07-22T11:29:27;30.20;67.90
8965;DHT22;4517;49.020;12.066;2022-07-22T11:31:57;30.20;68.20
8965;DHT22;4517;49.020;12.066;2022-07-22T11:34:24;30.20;68.80
8965;DHT22;4517;49.020;12.066;2022-07-22T11:36:51;30.20;67.20
8965;DHT22;4517;49.020;12.066;2022-07-22T11:39:23;30.20;67.00
8965;DHT22;4517;49.020;12.066;2022-07-22T11:41:49;30.20;67.30
8965;DHT22;4517;49.020;12.066;2022-07-22T11:44:22;30.10;66.90
8965;DHT22;4517;49.020;12.066;2022-07-22T11:46:49;30.10;66.90
8965;DHT22;4517;49.020;12.066;2022-07-22T11:49:17;30.20;66.70
8965;DHT22;4517;49.020;12.066;2022-07-22T11:51:43;30.30;65.60
8965;DHT22;4517;49.020;12.066;2022-07-22T11:54:09;30.10;64.50
8965;DHT22;4517;49.020;12.066;2022-07-22T11:56:36;29.90;64.00
8965;DHT22;4517;49.020;12.066;2022-07-22T11:59:02;29.70;63.10
8965;DHT22;4517;49.020;12.066;2022-07-22T12:01:31;29.60;63.50
8965;DHT22;4517;49.020;12.066;2022-07-22T12:03:59;29.70;64.50
8965;DHT22;4517;49.020;12.066;2022-07-22T12:06:27;29.70;63.60
8965;DHT22;4517;49.020;12.066;2022-07-22T12:08:56;29.80;65.60
8965;DHT22;4517;49.020;12.066;2022-07-22T12:11:27;29.90;63.50
8965;DHT22;4517;49.020;12.066;2022-07-22T12:13:52;29.70;62.80
8965;DHT22;4517;49.020;12.066;2022-07-22T12:16:28;29.70;63.90
8965;DHT22;4517;49.020;12.066;2022-07-22T12:18:58;29.80;63.00
8965;DHT22;4517;49.020;12.066;2022-07-22T12:21:26;29.90;61.80
8965;DHT22;4517;49.020;12.066;2022-07-22T12:24:05;29.80;61.30
8965;DHT22;4517;49.020;12.066;2022-07-22T12:26:45;29.70;60.30
8965;DHT22;4517;49.020;12.066;2022-07-22T12:29:28;29.60;60.10
8965;DHT22;4517;49.020;12.066;2022-07-22T12:31:57;29.60;60.50
8965;DHT22;4517;49.020;12.066;2022-07-22T12:34:31;29.80;61.90
8965;DHT22;4517;49.020;12.066;2022-07-22T12:36:57;30.10;60.80
8965;DHT22;4517;49.020;12.066;2022-07-22T12:39:23;30.40;59.90
8965;DHT22;4517;49.020;12.066;2022-07-22T12:41:51;30.30;59.20
8965;DHT22;4517;49.020;12.066;2022-07-22T12:44:20;30.20;59.60
8965;DHT22;4517;49.020;12.066;2022-07-22T12:46:51;30.20;60.80
8965;DHT22;4517;49.020;12.066;2022-07-22T12:49:20;30.30;60.40
8965;DHT22;4517;49.020;12.066;2022-07-22T12:52:09;30.40;60.10
8965;DHT22;4517;49.020;12.066;2022-07-22T12:54:36;30.60;59.90
8965;DHT22;4517;49.020;12.066;2022-07-22T12:57:02;30.60;60.00
8965;DHT22;4517;49.020;12.066;2022-07-22T12:59:28;30.50;60.10
8965;DHT22;4517;49.020;12.066;2022-07-22T13:01:54;30.30;59.60
8965;DHT22;4517;49.020;12.066;2022-07-22T13:04:19;30.10;60.10
8965;DHT22;4517;49.020;12.066;2022-07-22T13:06:45;30.10;60.50
8965;DHT22;4517;49.020;12.066;2022-07-22T13:09:10;30.10;61.10
8965;DHT22;4517;49.020;12.066;2022-07-22T13:11:36;30.10;60.40
8965;DHT22;4517;49.020;12.066;2022-07-22T13:14:05;30.10;59.70
8965;DHT22;4517;49.020;12.066;2022-07-22T13:16:32;30.10;59.20
8965;DHT22;4517;49.020;12.066;2022-07-22T13:18:58;29.90;59.20
8965;DHT22;4517;49.020;12.066;2022-07-22T13:21:23;30.10;59.10
8965;DHT22;4517;49.020;12.066;2022-07-22T13:23:49;30.20;59.00
8965;DHT22;4517;49.020;12.066;2022-07-22T13:26:15;30.20;58.90
8965;DHT22;4517;49.020;12.066;2022-07-22T13:28:40;30.30;58.50
8965;DHT22;4517;49.020;12.066;2022-07-22T13:31:07;30.40;59.30
8965;DHT22;4517;49.020;12.066;2022-07-22T13:33:32;30.50;59.10
8965;DHT22;4517;49.020;12.066;2022-07-22T13:35:58;30.40;59.20
8965;DHT22;4517;49.020;12.066;2022-07-22T13:38:24;30.40;59.30
8965;DHT22;4517;49.020;12.066;2022-07-22T13:40:49;30.40;59.20
8965;DHT22;4517;49.020;12.066;2022-07-22T13:43:22;30.20;59.20
8965;DHT22;4517;49.020;12.066;2022-07-22T13:45:50;30.10;59.20
8965;DHT22;4517;49.020;12.066;2022-07-22T13:48:16;30.00;59.20
8965;DHT22;4517;49.020;12.066;2022-07-22T13:50:47;29.80;59.20
8965;DHT22;4517;49.020;12.066;2022-07-22T13:53:12;29.70;59.40
8965;DHT22;4517;49.020;12.066;2022-07-22T13:55:39;29.60;59.00
8965;DHT22;4517;49.020;12.066;2022-07-22T13:58:05;29.70;58.90
8965;DHT22;4517;49.020;12.066;2022-07-22T14:00:30;29.80;58.50
8965;DHT22;4517;49.020;12.066;2022-07-22T14:02:56;30.00;58.80
8965;DHT22;4517;49.020;12.066;2022-07-22T14:05:22;30.00;58.90
8965;DHT22;4517;49.020;12.066;2022-07-22T14:07:47;30.10;59.20
8965;DHT22;4517;49.020;12.066;2022-07-22T14:10:13;30.20;59.10
8965;DHT22;4517;49.020;12.066;2022-07-22T14:12:40;30.10;59.00
8965;DHT22;4517;49.020;12.066;2022-07-22T14:15:07;30.10;59.20
8965;DHT22;4517;49.020;12.066;2022-07-22T14:17:33;30.20;58.00
8965;DHT22;4517;49.020;12.066;2022-07-22T14:19:59;30.40;58.80
8965;DHT22;4517;49.020;12.066;2022-07-22T14:22:25;30.40;58.60
8965;DHT22;4517;49.020;12.066;2022-07-22T14:24:50;30.40;58.20
8965;DHT22;4517;49.020;12.066;2022-07-22T14:27:16;30.50;58.40
8965;DHT22;4517;49.020;12.066;2022-07-22T14:29:42;30.50;58.50
8965;DHT22;4517;49.020;12.066;2022-07-22T14:32:07;30.80;58.00
8965;DHT22;4517;49.020;12.066;2022-07-22T14:34:33;30.80;57.50
8965;DHT22;4517;49.020;12.066;2022-07-22T14:36:59;30.70;57.20
8965;DHT22;4517;49.020;12.066;2022-07-22T14:39:24;30.50;57.60
8965;DHT22;4517;49.020;12.066;2022-07-22T14:41:50;30.60;57.40
8965;DHT22;4517;49.020;12.066;2022-07-22T14:44:16;30.60;58.50
8965;DHT22;4517;49.020;12.066;2022-07-22T14:46:41;30.70;57.90
8965;DHT22;4517;49.020;12.066;2022-07-22T14:49:07;30.70;57.70
8965;DHT22;4517;49.020;12.066;2022-07-22T14:51:33;30.80;57.40
8965;DHT22;4517;49.020;12.066;2022-07-22T14:53:59;30.90;57.20
8965;DHT22;4517;49.020;12.066;2022-07-22T14:56:25;30.90;57.20
8965;DHT22;4517;49.020;12.066;2022-07-22T14:58:50;30.90;56.70
8965;DHT22;4517;49.020;12.066;2022-07-22T15:01:16;30.80;56.60
8965;DHT22;4517;49.020;12.066;2022-07-22T15:03:41;30.70;56.70
8965;DHT22;4517;49.020;12.066;2022-07-22T15:06:08;30.80;57.10
8965;DHT22;4517;49.020;12.066;2022-07-22T15:08:33;30.70;56.40
8965;DHT22;4517;49.020;12.066;2022-07-22T15:10:59;30.70;56.40
8965;DHT22;4517;49.020;12.066;2022-07-22T15:13:26;30.80;56.60
8965;DHT22;4517;49.020;12.066;2022-07-22T15:15:51;30.80;56.60
8965;DHT22;4517;49.020;12.066;2022-07-22T15:18:17;30.90;56.40
8965;DHT22;4517;49.020;12.066;2022-07-22T15:20:43;31.00;56.30
8965;DHT22;4517;49.020;12.066;2022-07-22T15:23:08;30.80;55.50
8965;DHT22;4517;49.020;12.066;2022-07-22T15:25:35;30.70;55.60
8965;DHT22;4517;49.020;12.066;2022-07-22T15:28:00;30.80;55.40
8965;DHT22;4517;49.020;12.066;2022-07-22T15:30:26;30.80;55.30
8965;DHT22;4517;49.020;12.066;2022-07-22T15:32:52;30.90;55.00
8965;DHT22;4517;49.020;12.066;2022-07-22T15:35:17;30.80;54.80
8965;DHT22;4517;49.020;12.066;2022-07-22T15:37:43;30.80;56.20
8965;DHT22;4517;49.020;12.066;2022-07-22T15:40:10;30.90;55.50
8965;DHT22;4517;49.020;12.066;2022-07-22T15:42:37;31.00;55.60
8965;DHT22;4517;49.020;12.066;2022-07-22T15:45:04;31.10;55.00
8965;DHT22;4517;49.020;12.066;2022-07-22T15:47:30;31.00;55.20
8965;DHT22;4517;49.020;12.066;2022-07-22T15:49:56;30.90;55.30
8965;DHT22;4517;49.020;12.066;2022-07-22T15:52:21;30.90;55.20
8965;DHT22;4517;49.020;12.066;2022-07-22T15:54:47;31.00;55.20
8965;DHT22;4517;49.020;12.066;2022-07-22T15:57:13;31.00;55.00